createdAt,value
2022-10-26T00:00:01.039Z,0.00
2022-10-26T00:01:01.035Z,0.00
2022-10-26T00:02:01.115Z,0.00
2022-10-26T00:03:01.013Z,0.00
2022-10-26T00:04:01.024Z,0.00
2022-10-26T00:05:00.985Z,0.00
2022-10-26T00:06:00.975Z,0.00
2022-10-26T00:07:00.980Z,0.00
2022-10-26T00:08:00.964Z,0.00
2022-10-26T00:09:00.953Z,0.00
2022-10-26T00:10:00.952Z,0.00
2022-10-26T00:11:00.923Z,0.00
2022-10-26T00:12:00.941Z,0.00
2022-10-26T00:13:00.901Z,0.00
2022-10-26T00:14:00.892Z,0.00
2022-10-26T00:15:00.895Z,0.00
2022-10-26T00:17:00.860Z,0.00
2022-10-26T00:18:00.840Z,0.00
2022-10-26T00:19:00.846Z,0.00
2022-10-26T00:20:00.821Z,0.00
2022-10-26T00:21:00.833Z,0.00
2022-10-26T00:22:00.798Z,0.00
2022-10-26T00:23:00.805Z,0.00
2022-10-26T00:24:00.787Z,0.00
2022-10-26T00:25:01.681Z,0.00
2022-10-26T00:26:00.759Z,0.00
2022-10-26T00:27:00.765Z,0.00
2022-10-26T00:28:00.728Z,0.00
2022-10-26T00:29:00.723Z,0.00
2022-10-26T00:30:00.705Z,0.00
2022-10-26T00:31:00.697Z,0.00
2022-10-26T00:32:00.702Z,0.00
2022-10-26T00:33:00.684Z,0.00
2022-10-26T00:34:00.667Z,0.00
2022-10-26T00:35:10.441Z,0.00
2022-10-26T00:36:01.664Z,0.00
2022-10-26T00:37:00.658Z,0.00
2022-10-26T00:38:00.657Z,0.00
2022-10-26T00:39:00.620Z,0.00
2022-10-26T00:40:00.625Z,0.00
2022-10-26T00:41:00.592Z,0.00
2022-10-26T00:42:01.178Z,0.00
2022-10-26T00:43:00.565Z,0.00
2022-10-26T00:44:00.560Z,0.00
2022-10-26T00:45:00.557Z,0.00
2022-10-26T00:46:00.561Z,0.00
2022-10-26T00:47:00.528Z,0.00
2022-10-26T00:48:00.530Z,0.00
2022-10-26T00:49:00.503Z,0.00
2022-10-26T00:50:00.488Z,0.00
2022-10-26T00:51:00.481Z,0.00
2022-10-26T00:52:00.463Z,0.00
2022-10-26T00:53:00.459Z,0.00
2022-10-26T00:54:00.458Z,0.00
2022-10-26T00:55:00.439Z,0.00
2022-10-26T00:56:00.433Z,0.00
2022-10-26T00:57:00.410Z,0.00
2022-10-26T00:58:00.399Z,0.00
2022-10-26T00:59:00.417Z,0.00
2022-10-26T01:00:00.375Z,0.00
2022-10-26T01:01:00.373Z,0.00
2022-10-26T01:02:00.353Z,0.00
2022-10-26T01:03:00.350Z,0.00
2022-10-26T01:04:00.465Z,0.00
2022-10-26T01:05:00.707Z,0.00
2022-10-26T01:06:00.341Z,0.00
2022-10-26T01:07:00.367Z,0.00
2022-10-26T01:08:00.305Z,0.00
2022-10-26T01:09:00.283Z,0.00
2022-10-26T01:10:00.288Z,0.00
2022-10-26T01:11:00.268Z,0.00
2022-10-26T01:12:00.270Z,0.00
2022-10-26T01:13:00.288Z,0.00
2022-10-26T01:14:00.220Z,0.00
2022-10-26T01:15:00.216Z,0.00
2022-10-26T01:16:00.213Z,0.00
2022-10-26T01:17:00.233Z,0.00
2022-10-26T01:18:00.181Z,0.00
2022-10-26T01:19:00.178Z,0.00
2022-10-26T01:20:01.121Z,0.00
2022-10-26T01:21:00.164Z,0.00
2022-10-26T01:22:00.137Z,0.00
2022-10-26T01:23:00.136Z,0.00
2022-10-26T01:24:00.117Z,0.00
2022-10-26T01:25:00.110Z,0.00
2022-10-26T01:26:00.093Z,0.00
2022-10-26T01:27:00.098Z,0.00
2022-10-26T01:28:00.090Z,0.00
2022-10-26T01:29:00.057Z,0.00
2022-10-26T01:30:00.047Z,0.00
2022-10-26T01:31:00.038Z,0.00
2022-10-26T01:32:00.040Z,0.00
2022-10-26T01:33:00.026Z,0.00
2022-10-26T01:34:00.005Z,0.00
2022-10-26T01:34:59.993Z,0.00
2022-10-26T01:35:59.981Z,0.00
2022-10-26T01:36:59.968Z,0.00
2022-10-26T01:38:00.680Z,0.00
2022-10-26T01:38:59.947Z,0.00
2022-10-26T01:39:59.931Z,0.00
2022-10-26T01:40:59.931Z,0.00
2022-10-26T01:41:59.914Z,0.00
2022-10-26T01:43:00.213Z,0.00
2022-10-26T01:43:59.895Z,0.00
2022-10-26T01:44:59.889Z,0.00
2022-10-26T01:45:59.866Z,0.00
2022-10-26T01:46:59.869Z,0.00
2022-10-26T01:47:59.855Z,0.00
2022-10-26T01:48:59.855Z,0.00
2022-10-26T01:49:59.825Z,0.00
2022-10-26T01:50:59.820Z,0.00
2022-10-26T01:51:59.798Z,0.00
2022-10-26T01:52:59.796Z,0.00
2022-10-26T01:53:59.781Z,0.00
2022-10-26T01:54:59.833Z,0.00
2022-10-26T01:55:59.760Z,0.00
2022-10-26T01:56:59.759Z,0.00
2022-10-26T01:57:59.761Z,0.00
2022-10-26T01:58:59.783Z,0.00
2022-10-26T01:59:59.738Z,0.00
2022-10-26T02:00:59.720Z,0.00
2022-10-26T02:01:59.693Z,0.00
2022-10-26T02:02:59.690Z,0.00
2022-10-26T02:03:59.755Z,0.00
2022-10-26T02:04:59.671Z,0.00
2022-10-26T02:05:59.643Z,0.00
2022-10-26T02:06:59.631Z,0.00
2022-10-26T02:07:59.633Z,0.00
2022-10-26T02:08:59.633Z,0.00
2022-10-26T02:09:59.598Z,0.00
2022-10-26T02:10:59.618Z,0.00
2022-10-26T02:11:59.588Z,0.00
2022-10-26T02:12:59.569Z,0.00
2022-10-26T02:13:59.563Z,0.00
2022-10-26T02:14:59.580Z,0.00
2022-10-26T02:15:59.538Z,0.00
2022-10-26T02:16:59.544Z,0.00
2022-10-26T02:17:59.516Z,0.00
2022-10-26T02:18:59.510Z,0.00
2022-10-26T02:19:59.503Z,0.00
2022-10-26T02:20:59.490Z,0.00
2022-10-26T02:21:59.510Z,0.00
2022-10-26T02:22:59.477Z,0.00
2022-10-26T02:23:59.510Z,0.00
2022-10-26T02:24:59.459Z,0.00
2022-10-26T02:25:59.420Z,0.00
2022-10-26T02:26:59.424Z,0.00
2022-10-26T02:27:59.401Z,0.00
2022-10-26T02:28:59.414Z,0.00
2022-10-26T02:29:59.398Z,0.00
2022-10-26T02:30:59.377Z,0.00
2022-10-26T02:31:59.367Z,0.00
2022-10-26T02:32:59.349Z,0.00
2022-10-26T02:33:59.337Z,0.00
2022-10-26T02:34:59.339Z,0.00
2022-10-26T02:35:59.319Z,0.00
2022-10-26T02:36:59.314Z,0.00
2022-10-26T02:37:59.298Z,0.00
2022-10-26T02:38:59.283Z,0.00
2022-10-26T02:39:59.277Z,0.00
2022-10-26T02:40:59.265Z,0.00
2022-10-26T02:41:59.246Z,0.00
2022-10-26T02:42:59.235Z,0.00
2022-10-26T02:43:59.222Z,0.00
2022-10-26T02:44:59.208Z,0.00
2022-10-26T02:45:59.215Z,0.00
2022-10-26T02:46:59.210Z,0.00
2022-10-26T02:47:59.194Z,0.00
2022-10-26T02:48:59.174Z,0.00
2022-10-26T02:49:59.170Z,0.00
2022-10-26T02:50:59.166Z,0.00
2022-10-26T02:51:59.139Z,0.00
2022-10-26T02:52:59.128Z,0.00
2022-10-26T02:53:59.126Z,0.00
2022-10-26T02:54:59.109Z,0.00
2022-10-26T02:55:59.094Z,0.00
2022-10-26T02:56:59.090Z,0.00
2022-10-26T02:57:59.066Z,0.00
2022-10-26T02:58:59.070Z,0.00
2022-10-26T02:59:59.098Z,0.00
2022-10-26T03:00:59.044Z,0.00
2022-10-26T03:01:59.021Z,0.00
2022-10-26T03:02:59.013Z,0.00
2022-10-26T03:03:59.062Z,0.00
2022-10-26T03:04:59.013Z,0.00
2022-10-26T03:05:58.998Z,0.00
2022-10-26T03:06:58.976Z,0.00
2022-10-26T03:07:58.962Z,0.00
2022-10-26T03:08:58.956Z,0.00
2022-10-26T03:09:58.940Z,0.00
2022-10-26T03:10:58.943Z,0.00
2022-10-26T03:11:58.911Z,0.00
2022-10-26T03:12:58.897Z,0.00
2022-10-26T03:13:58.889Z,0.00
2022-10-26T03:14:58.882Z,0.00
2022-10-26T03:15:58.878Z,0.00
2022-10-26T03:16:58.867Z,0.00
2022-10-26T03:17:58.852Z,0.00
2022-10-26T03:18:58.835Z,0.00
2022-10-26T03:19:58.834Z,0.00
2022-10-26T03:20:58.816Z,0.00
2022-10-26T03:21:58.815Z,0.00
2022-10-26T03:22:58.810Z,0.00
2022-10-26T03:23:58.787Z,0.00
2022-10-26T03:24:58.858Z,0.00
2022-10-26T03:25:58.756Z,0.00
2022-10-26T03:27:01.252Z,0.00
2022-10-26T03:27:58.739Z,0.00
2022-10-26T03:28:58.730Z,0.00
2022-10-26T03:29:58.712Z,0.00
2022-10-26T03:30:58.711Z,0.00
2022-10-26T03:31:58.691Z,0.00
2022-10-26T03:32:58.693Z,0.00
2022-10-26T03:33:58.683Z,0.00
2022-10-26T03:34:58.663Z,0.00
2022-10-26T03:35:58.666Z,0.00
2022-10-26T03:36:58.647Z,0.00
2022-10-26T03:37:58.638Z,0.00
2022-10-26T03:38:58.632Z,0.00
2022-10-26T03:39:58.609Z,0.00
2022-10-26T03:40:58.594Z,0.00
2022-10-26T03:41:58.587Z,0.00
2022-10-26T03:42:58.571Z,0.00
2022-10-26T03:43:58.558Z,0.00
2022-10-26T03:44:58.563Z,0.00
2022-10-26T03:45:58.539Z,0.00
2022-10-26T03:46:58.537Z,0.00
2022-10-26T03:47:58.527Z,0.00
2022-10-26T03:48:58.510Z,0.00
2022-10-26T03:49:58.567Z,0.00
2022-10-26T03:50:58.498Z,0.00
2022-10-26T03:51:58.474Z,0.00
2022-10-26T03:52:58.454Z,0.00
2022-10-26T03:53:58.438Z,0.00
2022-10-26T03:54:58.455Z,0.00
2022-10-26T03:55:58.483Z,0.00
2022-10-26T03:56:58.433Z,0.00
2022-10-26T03:57:58.410Z,0.00
2022-10-26T03:58:58.413Z,0.00
2022-10-26T03:59:58.402Z,0.00
2022-10-26T04:00:58.382Z,0.00
2022-10-26T04:01:58.461Z,0.00
2022-10-26T04:02:58.352Z,0.00
2022-10-26T04:03:58.472Z,0.00
2022-10-26T04:04:58.346Z,0.00
2022-10-26T04:05:58.328Z,0.00
2022-10-26T04:06:58.315Z,0.00
2022-10-26T04:07:58.296Z,0.00
2022-10-26T04:08:58.286Z,0.00
2022-10-26T04:09:58.279Z,0.00
2022-10-26T04:11:01.008Z,0.00
2022-10-26T04:11:59.248Z,0.00
2022-10-26T04:12:58.235Z,0.00
2022-10-26T04:13:58.265Z,0.00
2022-10-26T04:14:58.460Z,0.00
2022-10-26T04:15:58.202Z,0.00
2022-10-26T04:16:58.209Z,0.00
2022-10-26T04:17:58.178Z,0.00
2022-10-26T04:18:58.164Z,0.00
2022-10-26T04:19:58.202Z,0.00
2022-10-26T04:20:58.158Z,0.00
2022-10-26T04:21:58.140Z,0.00
2022-10-26T04:22:58.129Z,0.00
2022-10-26T04:23:58.151Z,0.00
2022-10-26T04:24:58.108Z,0.00
2022-10-26T04:25:58.096Z,0.00
2022-10-26T04:26:58.091Z,0.00
2022-10-26T04:27:58.070Z,0.00
2022-10-26T04:28:58.058Z,0.00
2022-10-26T04:29:58.066Z,0.00
2022-10-26T04:30:58.039Z,0.00
2022-10-26T04:31:58.028Z,0.00
2022-10-26T04:32:58.008Z,0.00
2022-10-26T04:33:57.999Z,0.00
2022-10-26T04:34:57.999Z,0.00
2022-10-26T04:35:57.993Z,0.00
2022-10-26T04:36:57.979Z,0.00
2022-10-26T04:37:57.964Z,0.00
2022-10-26T04:38:57.950Z,0.00
2022-10-26T04:39:58.344Z,0.00
2022-10-26T04:40:57.939Z,0.00
2022-10-26T04:41:57.918Z,0.00
2022-10-26T04:42:57.922Z,0.00
2022-10-26T04:43:57.903Z,0.00
2022-10-26T04:44:57.884Z,0.00
2022-10-26T04:45:57.877Z,0.00
2022-10-26T04:46:57.857Z,0.00
2022-10-26T04:47:57.851Z,0.00
2022-10-26T04:48:57.841Z,0.00
2022-10-26T04:49:57.825Z,0.00
2022-10-26T04:50:57.830Z,0.00
2022-10-26T04:51:57.821Z,0.00
2022-10-26T04:52:57.799Z,0.00
2022-10-26T04:53:57.800Z,0.00
2022-10-26T04:54:57.780Z,0.00
2022-10-26T04:55:57.763Z,0.00
2022-10-26T04:56:57.767Z,0.00
2022-10-26T04:58:00.393Z,0.00
2022-10-26T04:58:57.722Z,0.00
2022-10-26T04:59:57.717Z,0.00
2022-10-26T05:00:57.730Z,0.00
2022-10-26T05:01:57.791Z,0.00
2022-10-26T05:02:57.689Z,0.00
2022-10-26T05:03:57.678Z,0.00
2022-10-26T05:04:57.720Z,0.00
2022-10-26T05:05:57.663Z,0.00
2022-10-26T05:06:57.672Z,0.00
2022-10-26T05:07:57.649Z,0.00
2022-10-26T05:08:57.652Z,0.00
2022-10-26T05:09:57.672Z,0.00
2022-10-26T05:10:57.596Z,0.00
2022-10-26T05:11:57.601Z,0.00
2022-10-26T05:12:57.578Z,0.00
2022-10-26T05:13:57.560Z,0.00
2022-10-26T05:14:57.614Z,0.00
2022-10-26T05:15:57.542Z,0.00
2022-10-26T05:16:57.555Z,0.00
2022-10-26T05:17:57.518Z,4.00
2022-10-26T05:18:57.520Z,4.00
2022-10-26T05:19:57.500Z,0.00
2022-10-26T05:20:57.524Z,4.00
2022-10-26T05:21:57.476Z,4.00
2022-10-26T05:22:57.475Z,4.00
2022-10-26T05:23:57.477Z,4.00
2022-10-26T05:24:57.445Z,4.00
2022-10-26T05:25:57.446Z,4.00
2022-10-26T05:26:57.418Z,4.00
2022-10-26T05:27:57.429Z,8.00
2022-10-26T05:28:57.410Z,8.00
2022-10-26T05:29:57.441Z,12.00
2022-10-26T05:30:57.376Z,8.00
2022-10-26T05:31:57.368Z,12.00
2022-10-26T05:32:57.352Z,16.00
2022-10-26T05:33:57.340Z,20.00
2022-10-26T05:34:57.326Z,20.00
2022-10-26T05:35:57.335Z,24.00
2022-10-26T05:36:57.381Z,28.00
2022-10-26T05:37:57.295Z,32.00
2022-10-26T05:38:57.289Z,40.00
2022-10-26T05:39:57.277Z,44.00
2022-10-26T05:40:57.294Z,48.00
2022-10-26T05:41:57.309Z,56.00
2022-10-26T05:42:57.275Z,60.00
2022-10-26T05:43:57.234Z,68.00
2022-10-26T05:44:57.230Z,80.00
2022-10-26T05:45:57.222Z,88.00
2022-10-26T05:46:57.219Z,96.00
2022-10-26T05:48:00.021Z,108.00
2022-10-26T05:48:58.177Z,116.00
2022-10-26T05:49:57.189Z,128.00
2022-10-26T05:50:57.151Z,144.00
2022-10-26T05:51:57.152Z,156.00
2022-10-26T05:52:57.698Z,164.00
2022-10-26T05:53:57.117Z,180.00
2022-10-26T05:54:57.243Z,192.00
2022-10-26T05:55:57.097Z,208.00
2022-10-26T05:56:57.098Z,224.00
2022-10-26T05:57:57.123Z,240.00
2022-10-26T05:58:57.084Z,260.00
2022-10-26T05:59:57.054Z,276.00
2022-10-26T06:00:57.040Z,292.00
2022-10-26T06:01:57.148Z,316.00
2022-10-26T06:02:57.035Z,336.00
2022-10-26T06:03:57.021Z,356.00
2022-10-26T06:04:57.011Z,380.00
2022-10-26T06:05:56.994Z,404.00
2022-10-26T06:06:56.973Z,428.00
2022-10-26T06:07:56.976Z,460.00
2022-10-26T06:08:56.952Z,484.00
2022-10-26T06:09:56.950Z,516.00
2022-10-26T06:10:56.932Z,552.00
2022-10-26T06:11:56.927Z,596.00
2022-10-26T06:12:56.905Z,676.00
2022-10-26T06:13:57.285Z,784.00
2022-10-26T06:14:56.887Z,876.00
2022-10-26T06:15:56.885Z,944.00
2022-10-26T06:16:56.864Z,1016.00
2022-10-26T06:17:56.957Z,1032.00
2022-10-26T06:18:59.600Z,1116.00
2022-10-26T06:19:57.841Z,1180.00
2022-10-26T06:20:56.822Z,1256.00
2022-10-26T06:21:56.803Z,1328.00
2022-10-26T06:22:56.809Z,1412.00
2022-10-26T06:23:56.814Z,1496.00
2022-10-26T06:24:56.814Z,1556.00
2022-10-26T06:25:56.773Z,1652.00
2022-10-26T06:26:56.756Z,1736.00
2022-10-26T06:27:56.746Z,1804.00
2022-10-26T06:28:56.742Z,1876.00
2022-10-26T06:29:56.756Z,1956.00
2022-10-26T06:30:56.708Z,2032.00
2022-10-26T06:31:56.696Z,2132.00
2022-10-26T06:33:06.018Z,2224.00
2022-10-26T06:33:57.665Z,1812.00
2022-10-26T06:34:56.656Z,2392.00
2022-10-26T06:35:56.659Z,2452.00
2022-10-26T06:36:56.646Z,2504.00
2022-10-26T06:37:56.627Z,2536.00
2022-10-26T06:38:56.612Z,2508.00
2022-10-26T06:39:56.612Z,2592.00
2022-10-26T06:40:56.618Z,2744.00
2022-10-26T06:41:56.609Z,2852.00
2022-10-26T06:42:56.583Z,2892.00
2022-10-26T06:43:56.570Z,2964.00
2022-10-26T06:44:56.568Z,3112.00
2022-10-26T06:45:56.558Z,3236.00
2022-10-26T06:46:56.558Z,3288.00
2022-10-26T06:47:56.522Z,3408.00
2022-10-26T06:48:56.503Z,3504.00
2022-10-26T06:49:56.514Z,3592.00
2022-10-26T06:50:56.513Z,3656.00
2022-10-26T06:51:56.475Z,3768.00
2022-10-26T06:52:56.493Z,3896.00
2022-10-26T06:53:56.460Z,3976.00
2022-10-26T06:54:56.438Z,4096.00
2022-10-26T06:55:56.434Z,4192.00
2022-10-26T06:56:56.413Z,4292.00
2022-10-26T06:57:56.410Z,4424.00
2022-10-26T06:58:56.394Z,4528.00
2022-10-26T06:59:56.383Z,4616.00
2022-10-26T07:00:56.375Z,4752.00
2022-10-26T07:01:56.525Z,4840.00
2022-10-26T07:02:56.453Z,5000.00
2022-10-26T07:03:56.340Z,5132.00
2022-10-26T07:04:56.324Z,5256.00
2022-10-26T07:05:56.326Z,5392.00
2022-10-26T07:06:56.310Z,5532.00
2022-10-26T07:07:56.304Z,5676.00
2022-10-26T07:08:56.312Z,5812.00
2022-10-26T07:09:56.273Z,5928.00
2022-10-26T07:10:56.266Z,6060.00
2022-10-26T07:11:56.271Z,6256.00
2022-10-26T07:12:56.232Z,6320.00
2022-10-26T07:13:56.238Z,6572.00
2022-10-26T07:14:56.862Z,6780.00
2022-10-26T07:15:56.205Z,7020.00
2022-10-26T07:16:56.186Z,7428.00
2022-10-26T07:17:56.198Z,8648.00
2022-10-26T07:18:56.176Z,10068.00
2022-10-26T07:19:56.183Z,10456.00
2022-10-26T07:20:56.148Z,10256.00
2022-10-26T07:21:56.144Z,10160.00
2022-10-26T07:22:56.138Z,11072.00
2022-10-26T07:23:56.135Z,12240.00
2022-10-26T07:24:58.092Z,12588.00
2022-10-26T07:25:56.111Z,11808.00
2022-10-26T07:26:56.087Z,12508.00
2022-10-26T07:27:56.086Z,10728.00
2022-10-26T07:28:56.077Z,10620.00
2022-10-26T07:29:56.066Z,15808.00
2022-10-26T07:30:56.327Z,16448.00
2022-10-26T07:31:56.033Z,14624.00
2022-10-26T07:32:56.016Z,14112.00
2022-10-26T07:33:56.727Z,17024.00
2022-10-26T07:34:56.778Z,19008.00
2022-10-26T07:35:56.019Z,20288.00
2022-10-26T07:36:56.004Z,20384.00
2022-10-26T07:37:55.966Z,15392.00
2022-10-26T07:38:55.947Z,13760.00
2022-10-26T07:39:55.953Z,12256.00
2022-10-26T07:40:55.939Z,11868.00
2022-10-26T07:41:55.942Z,11424.00
2022-10-26T07:42:55.920Z,11988.00
2022-10-26T07:43:55.893Z,11732.00
2022-10-26T07:44:55.909Z,11880.00
2022-10-26T07:45:55.890Z,11876.00
2022-10-26T07:46:55.901Z,12000.00
2022-10-26T07:47:55.858Z,12276.00
2022-10-26T07:48:55.854Z,12356.00
2022-10-26T07:49:55.835Z,12892.00
2022-10-26T07:50:55.819Z,13212.00
2022-10-26T07:51:55.814Z,13464.00
2022-10-26T07:52:55.800Z,14336.00
2022-10-26T07:53:55.803Z,15328.00
2022-10-26T07:54:55.767Z,15456.00
2022-10-26T07:55:55.755Z,15296.00
2022-10-26T07:56:55.791Z,16480.00
2022-10-26T07:57:56.162Z,15200.00
2022-10-26T07:58:55.759Z,16512.00
2022-10-26T07:59:55.741Z,16608.00
2022-10-26T08:00:55.763Z,16192.00
2022-10-26T08:01:55.860Z,15936.00
2022-10-26T08:02:55.679Z,15936.00
2022-10-26T08:03:55.671Z,15712.00
2022-10-26T08:04:55.810Z,16352.00
2022-10-26T08:05:55.653Z,16992.00
2022-10-26T08:06:55.641Z,16640.00
2022-10-26T08:07:55.626Z,18144.00
2022-10-26T08:08:55.620Z,20352.00
2022-10-26T08:09:55.639Z,19104.00
2022-10-26T08:10:55.592Z,15744.00
2022-10-26T08:11:55.691Z,18784.00
2022-10-26T08:12:55.573Z,18880.00
2022-10-26T08:13:55.578Z,19520.00
2022-10-26T08:14:55.573Z,18944.00
2022-10-26T08:15:55.539Z,18880.00
2022-10-26T08:16:55.530Z,19392.00
2022-10-26T08:17:55.583Z,21376.00
2022-10-26T08:18:55.508Z,19936.00
2022-10-26T08:19:55.500Z,21344.00
2022-10-26T08:21:01.799Z,19936.00
2022-10-26T08:21:56.479Z,19552.00
2022-10-26T08:22:55.465Z,19616.00
2022-10-26T08:23:55.447Z,19136.00
2022-10-26T08:24:55.451Z,20448.00
2022-10-26T08:25:55.435Z,21728.00
2022-10-26T08:26:55.449Z,23488.00
2022-10-26T08:27:55.407Z,21056.00
2022-10-26T08:28:55.433Z,21728.00
2022-10-26T08:29:55.414Z,20512.00
2022-10-26T08:30:55.374Z,19072.00
2022-10-26T08:31:55.384Z,13364.00
2022-10-26T08:32:55.354Z,12568.00
2022-10-26T08:33:55.334Z,11980.00
2022-10-26T08:34:55.322Z,11712.00
2022-10-26T08:35:55.326Z,11624.00
2022-10-26T08:36:55.310Z,11516.00
2022-10-26T08:37:55.333Z,11324.00
2022-10-26T08:38:55.319Z,11272.00
2022-10-26T08:39:56.638Z,11288.00
2022-10-26T08:40:55.269Z,11264.00
2022-10-26T08:41:55.250Z,11240.00
2022-10-26T08:42:55.245Z,11216.00
2022-10-26T08:43:55.424Z,11276.00
2022-10-26T08:44:55.233Z,11316.00
2022-10-26T08:45:55.214Z,11316.00
2022-10-26T08:46:55.229Z,11392.00
2022-10-26T08:47:55.183Z,11432.00
2022-10-26T08:48:55.174Z,11456.00
2022-10-26T08:49:55.195Z,11568.00
2022-10-26T08:50:55.168Z,11604.00
2022-10-26T08:51:55.156Z,11772.00
2022-10-26T08:52:55.184Z,11848.00
2022-10-26T08:53:55.114Z,11988.00
2022-10-26T08:54:55.106Z,12184.00
2022-10-26T08:55:55.120Z,12300.00
2022-10-26T08:56:55.089Z,12624.00
2022-10-26T08:57:55.120Z,12840.00
2022-10-26T08:58:55.063Z,13260.00
2022-10-26T08:59:55.054Z,13852.00
2022-10-26T09:00:55.092Z,14856.00
2022-10-26T09:01:55.091Z,18144.00
2022-10-26T09:02:55.021Z,20448.00
2022-10-26T09:03:55.052Z,16704.00
2022-10-26T09:04:54.992Z,25280.00
2022-10-26T09:05:54.987Z,22688.00
2022-10-26T09:06:55.008Z,25312.00
2022-10-26T09:07:54.974Z,25088.00
2022-10-26T09:08:54.955Z,24384.00
2022-10-26T09:09:54.942Z,27456.00
2022-10-26T09:10:54.951Z,27200.00
2022-10-26T09:11:54.942Z,26784.00
2022-10-26T09:12:54.913Z,23264.00
2022-10-26T09:13:57.598Z,25120.00
2022-10-26T09:14:54.880Z,24256.00
2022-10-26T09:15:54.890Z,23648.00
2022-10-26T09:16:54.869Z,28384.00
2022-10-26T09:17:54.872Z,24032.00
2022-10-26T09:18:57.736Z,22240.00
2022-10-26T09:19:55.836Z,23296.00
2022-10-26T09:20:54.880Z,19296.00
2022-10-26T09:21:54.811Z,13640.00
2022-10-26T09:22:54.806Z,11288.00
2022-10-26T09:23:54.788Z,10448.00
2022-10-26T09:24:54.791Z,9964.00
2022-10-26T09:25:54.768Z,9444.00
2022-10-26T09:26:54.823Z,9300.00
2022-10-26T09:27:54.746Z,9008.00
2022-10-26T09:28:54.736Z,8828.00
2022-10-26T09:29:54.720Z,8632.00
2022-10-26T09:30:54.732Z,8580.00
2022-10-26T09:31:54.755Z,8408.00
2022-10-26T09:32:54.703Z,8360.00
2022-10-26T09:33:54.680Z,8288.00
2022-10-26T09:34:54.677Z,8252.00
2022-10-26T09:35:54.659Z,8232.00
2022-10-26T09:36:54.667Z,8148.00
2022-10-26T09:37:54.635Z,8180.00
2022-10-26T09:38:54.638Z,8148.00
2022-10-26T09:39:54.618Z,8404.00
2022-10-26T09:40:54.602Z,8760.00
2022-10-26T09:41:54.600Z,9584.00
2022-10-26T09:42:54.606Z,15976.00
2022-10-26T09:43:54.576Z,17568.00
2022-10-26T09:44:54.558Z,17472.00
2022-10-26T09:45:54.582Z,10500.00
2022-10-26T09:46:54.538Z,7372.00
2022-10-26T09:47:54.525Z,6764.00
2022-10-26T09:48:54.540Z,6180.00
2022-10-26T09:49:54.508Z,6024.00
2022-10-26T09:50:54.487Z,5864.00
2022-10-26T09:51:54.475Z,5792.00
2022-10-26T09:52:54.480Z,5676.00
2022-10-26T09:53:54.458Z,5488.00
2022-10-26T09:54:54.449Z,5392.00
2022-10-26T09:55:54.436Z,5460.00
2022-10-26T09:56:54.428Z,5504.00
2022-10-26T09:57:54.424Z,5520.00
2022-10-26T09:58:54.415Z,5436.00
2022-10-26T09:59:54.396Z,5564.00
2022-10-26T10:00:54.378Z,5576.00
2022-10-26T10:01:54.488Z,5656.00
2022-10-26T10:02:54.558Z,5480.00
2022-10-26T10:03:54.359Z,5484.00
2022-10-26T10:04:54.334Z,5556.00
2022-10-26T10:05:54.327Z,5624.00
2022-10-26T10:06:54.313Z,5596.00
2022-10-26T10:07:54.298Z,5700.00
2022-10-26T10:09:54.284Z,5532.00
2022-10-26T10:10:54.268Z,5744.00
2022-10-26T10:11:54.254Z,5832.00
2022-10-26T10:12:54.245Z,5836.00
2022-10-26T10:13:54.872Z,5952.00
2022-10-26T10:14:54.240Z,5812.00
2022-10-26T10:15:54.212Z,6128.00
2022-10-26T10:16:54.234Z,6180.00
2022-10-26T10:17:54.597Z,6236.00
2022-10-26T10:18:54.176Z,6396.00
2022-10-26T10:19:54.163Z,6424.00
2022-10-26T10:20:54.171Z,6364.00
2022-10-26T10:21:54.142Z,6660.00
2022-10-26T10:22:54.144Z,6580.00
2022-10-26T10:23:54.135Z,6612.00
2022-10-26T10:24:54.141Z,6936.00
2022-10-26T10:25:54.121Z,7096.00
2022-10-26T10:26:54.113Z,7272.00
2022-10-26T10:27:54.076Z,7192.00
2022-10-26T10:28:54.077Z,7488.00
2022-10-26T10:29:54.057Z,7552.00
2022-10-26T10:30:54.046Z,7808.00
2022-10-26T10:31:54.057Z,8224.00
2022-10-26T10:32:54.248Z,8332.00
2022-10-26T10:33:54.021Z,8692.00
2022-10-26T10:34:54.031Z,8900.00
2022-10-26T10:35:53.988Z,9280.00
2022-10-26T10:36:53.977Z,9672.00
2022-10-26T10:37:53.966Z,9980.00
2022-10-26T10:38:53.979Z,10560.00
2022-10-26T10:39:53.968Z,11556.00
2022-10-26T10:40:53.934Z,17760.00
2022-10-26T10:41:53.926Z,25408.00
2022-10-26T10:42:54.035Z,31040.00
2022-10-26T10:43:53.903Z,37664.00
2022-10-26T10:44:53.908Z,38816.00
2022-10-26T10:45:55.859Z,39264.00
2022-10-26T10:46:53.861Z,38272.00
2022-10-26T10:47:53.860Z,34400.00
2022-10-26T10:48:53.842Z,23328.00
2022-10-26T10:49:53.854Z,21792.00
2022-10-26T10:50:53.820Z,21504.00
2022-10-26T10:51:53.809Z,23360.00
2022-10-26T10:52:53.819Z,21344.00
2022-10-26T10:53:53.803Z,29248.00
2022-10-26T10:54:53.797Z,38368.00
2022-10-26T10:55:53.771Z,40672.00
2022-10-26T10:56:53.762Z,40000.00
2022-10-26T10:57:53.744Z,40448.00
2022-10-26T10:58:53.736Z,41696.00
2022-10-26T10:59:53.742Z,41312.00
2022-10-26T11:00:53.713Z,41760.00
2022-10-26T11:01:53.817Z,40832.00
2022-10-26T11:02:53.709Z,31200.00
2022-10-26T11:03:53.673Z,19168.00
2022-10-26T11:04:53.668Z,18528.00
2022-10-26T11:05:53.652Z,22784.00
2022-10-26T11:06:53.655Z,31712.00
2022-10-26T11:07:53.631Z,40000.00
2022-10-26T11:08:53.621Z,42240.00
2022-10-26T11:10:53.617Z,42112.00
2022-10-26T11:11:53.596Z,40800.00
2022-10-26T11:12:53.579Z,34048.00
2022-10-26T11:13:53.577Z,34272.00
2022-10-26T11:14:53.557Z,23200.00
2022-10-26T11:15:53.568Z,28320.00
2022-10-26T11:16:53.532Z,30688.00
2022-10-26T11:17:53.532Z,19616.00
2022-10-26T11:18:53.540Z,23200.00
2022-10-26T11:19:53.497Z,24608.00
2022-10-26T11:20:53.546Z,30208.00
2022-10-26T11:21:53.494Z,28160.00
2022-10-26T11:22:53.799Z,21696.00
2022-10-26T11:23:53.497Z,22912.00
2022-10-26T11:24:53.534Z,19264.00
2022-10-26T11:25:53.436Z,19008.00
2022-10-26T11:26:53.421Z,20352.00
2022-10-26T11:27:53.398Z,16224.00
2022-10-26T11:28:53.403Z,18688.00
2022-10-26T11:29:53.382Z,30176.00
2022-10-26T11:30:53.378Z,37792.00
2022-10-26T11:31:53.363Z,37792.00
2022-10-26T11:32:53.352Z,37344.00
2022-10-26T11:33:53.410Z,36128.00
2022-10-26T11:34:53.348Z,32384.00
2022-10-26T11:35:53.317Z,25376.00
2022-10-26T11:36:53.314Z,19552.00
2022-10-26T11:37:53.310Z,25920.00
2022-10-26T11:38:57.339Z,35968.00
2022-10-26T11:39:53.308Z,39328.00
2022-10-26T11:40:53.286Z,38944.00
2022-10-26T11:41:53.290Z,27584.00
2022-10-26T11:42:53.253Z,22304.00
2022-10-26T11:43:53.254Z,32416.00
2022-10-26T11:44:53.304Z,37888.00
2022-10-26T11:45:53.313Z,38464.00
2022-10-26T11:46:53.218Z,39040.00
2022-10-26T11:47:53.375Z,35232.00
2022-10-26T11:48:53.177Z,26560.00
2022-10-26T11:49:53.165Z,24128.00
2022-10-26T11:50:53.169Z,12972.00
2022-10-26T11:51:53.149Z,17952.00
2022-10-26T11:52:53.385Z,24448.00
2022-10-26T11:53:53.132Z,16512.00
2022-10-26T11:54:53.121Z,9812.00
2022-10-26T11:55:53.158Z,8488.00
2022-10-26T11:56:53.898Z,7380.00
2022-10-26T11:57:53.166Z,6376.00
2022-10-26T11:58:53.130Z,5424.00
2022-10-26T11:59:53.060Z,4516.00
2022-10-26T12:00:53.064Z,3760.00
2022-10-26T12:01:53.064Z,3148.00
2022-10-26T12:02:53.046Z,2820.00
2022-10-26T12:03:53.012Z,2604.00
2022-10-26T12:04:53.011Z,2428.00
2022-10-26T12:05:53.103Z,2356.00
2022-10-26T12:06:52.979Z,2332.00
2022-10-26T12:07:53.214Z,2300.00
2022-10-26T12:08:52.962Z,2276.00
2022-10-26T12:09:52.957Z,2256.00
2022-10-26T12:10:52.943Z,2256.00
2022-10-26T12:11:52.925Z,2216.00
2022-10-26T12:12:53.164Z,2196.00
2022-10-26T12:13:52.906Z,2176.00
2022-10-26T12:14:52.902Z,2160.00
2022-10-26T12:16:08.211Z,2148.00
2022-10-26T12:16:53.882Z,2136.00
2022-10-26T12:17:52.893Z,2112.00
2022-10-26T12:18:55.998Z,2108.00
2022-10-26T12:19:53.341Z,2096.00
2022-10-26T12:20:52.836Z,2084.00
2022-10-26T12:21:52.813Z,2076.00
2022-10-26T12:22:52.837Z,2060.00
2022-10-26T12:23:52.803Z,2044.00
2022-10-26T12:24:52.791Z,2040.00
2022-10-26T12:25:52.772Z,2032.00
2022-10-26T12:26:52.784Z,2020.00
2022-10-26T12:27:52.754Z,2004.00
2022-10-26T12:28:54.636Z,2008.00
2022-10-26T12:29:52.729Z,2000.00
2022-10-26T12:30:52.742Z,1996.00
2022-10-26T12:31:52.715Z,1988.00
2022-10-26T12:32:53.016Z,1984.00
2022-10-26T12:33:52.705Z,1968.00